Blue Capricorn — WDH8230 — position and weather

sailwx.info

Track history (hours):
 
Tides and Currents Weather Stations Pressure Air Temp Water Temp Dewpoint Dewpoint Depression Visibility Wind Speed Wind Dir Waves Ship Positions

Blue Capricorn

Owner: Matheson, Kenneth R, Houston, TX. More information available from US FCC via Universal Licensing System and Coast Guard Vessel Documentation Center.

Last reported at 2017-Nov-19 21:30 UTC. Time now 2017-Nov-19 21:52 UTC.
Position N 30°04' W 093°22'.

Length 23 m; draft 3 m.

Type: . MMSI: 367656820.

Date/timePositionNaut miles runAvg speedWind from/ knotsBaromVisibWave heightAir tempDewpointWater temp
2017-Nov-19 21:30N 30°04' W 093°22'0 0.1
2017-Nov-19 21:00N 30°04' W 093°22'0 0.0
2017-Nov-19 20:30N 30°04' W 093°22'0 0.1
2017-Nov-19 20:00N 30°04' W 093°22'2 4.7
2017-Nov-19 19:30N 30°05' W 093°20'2 3.5
2017-Nov-19 19:00N 30°06' W 093°18'0 0.0
2017-Nov-19 18:30N 30°06' W 093°18'0 0.0
2017-Nov-19 18:00N 30°06' W 093°18'1 2.6
2017-Nov-19 17:30N 30°05' W 093°18'1 2.2
2017-Nov-19 17:00N 30°05' W 093°17'3 5.3
2017-Nov-19 16:30N 30°02' W 093°15'2 4.5
2017-Nov-19 16:00N 30°00' W 093°14'3 5.9
2017-Nov-19 15:30N 29°58' W 093°11'3 5.9
2017-Nov-19 15:00N 29°56' W 093°09'3 6.0
2017-Nov-19 14:30N 29°56' W 093°05'37 5.7
2017-Nov-19 07:53N 29°52' W 092°23'2 5.1
2017-Nov-19 07:30N 29°51' W 092°21'3 5.7
2017-Nov-19 07:01N 29°50' W 092°18'3 5.7
2017-Nov-19 06:30N 29°48' W 092°15'2 3.2
2017-Nov-19 06:00N 29°48' W 092°14'3 5.9
2017-Nov-19 05:30N 29°47' W 092°10'3 6.7
2017-Nov-19 05:00N 29°48' W 092°07'3 6.9
2017-Nov-19 04:30N 29°49' W 092°03'3 6.3
2017-Nov-19 04:00N 29°50' W 091°60'57 5.8
2017-Nov-18 18:08N 29°34' W 090°56'1 6.3
2017-Nov-18 17:59N 29°34' W 090°55'3 6.5
2017-Nov-18 17:30N 29°32' W 090°52'3 6.4
2017-Nov-18 17:00N 29°32' W 090°48'3 5.6
2017-Nov-18 16:30N 29°33' W 090°45'3 5.1
2017-Nov-18 16:00N 29°35' W 090°43'2 4.9
2017-Nov-18 15:30N 29°37' W 090°41'3 5.8
2017-Nov-18 15:00N 29°35' W 090°39'2 3.2
2017-Nov-18 14:25N 29°35' W 090°37'0 0.0
2017-Nov-18 13:58N 29°35' W 090°37'0 0.0
2017-Nov-18 13:25N 29°35' W 090°37'0 0.0
2017-Nov-18 12:58N 29°35' W 090°37'0 0.0
2017-Nov-18 12:25N 29°35' W 090°37'0 0.0
2017-Nov-18 11:58N 29°35' W 090°37'0 0.0
2017-Nov-18 11:28N 29°35' W 090°37'0 0.0
2017-Nov-18 10:55N 29°35' W 090°37'0 0.0
2017-Nov-18 10:28N 29°35' W 090°37'0 0.0
2017-Nov-18 09:55N 29°35' W 090°37'0 0.0
2017-Nov-18 09:25N 29°35' W 090°37'0 0.0
2017-Nov-18 08:58N 29°35' W 090°37'0 0.0
2017-Nov-18 08:25N 29°35' W 090°37'0 0.0
2017-Nov-18 07:58N 29°35' W 090°37'0 0.0
2017-Nov-18 07:28N 29°35' W 090°37'0 0.0
2017-Nov-18 06:58N 29°35' W 090°37'0 0.0
2017-Nov-18 06:28N 29°35' W 090°37'0 0.0
2017-Nov-18 05:55N 29°35' W 090°37'0 0.0
2017-Nov-18 05:25N 29°35' W 090°37'0 0.0
2017-Nov-18 04:58N 29°35' W 090°37'0 0.0
2017-Nov-18 04:25N 29°35' W 090°37'0 0.0
2017-Nov-18 03:58N 29°35' W 090°37'0 0.0
2017-Nov-18 03:28N 29°35' W 090°37'0 0.0
2017-Nov-18 02:55N 29°35' W 090°37'0 0.0
2017-Nov-18 02:28N 29°35' W 090°37'0 0.0
2017-Nov-18 01:55N 29°35' W 090°37'0 0.0
2017-Nov-18 01:25N 29°35' W 090°37'0 0.0
2017-Nov-18 00:58N 29°35' W 090°37'0 0.0
2017-Nov-18 00:28N 29°35' W 090°37'0 0.0
2017-Nov-17 23:58N 29°35' W 090°37'0 0.0
2017-Nov-17 23:28N 29°35' W 090°37'0 0.0
2017-Nov-17 22:55N 29°35' W 090°37'0 0.0
2017-Nov-17 22:28N 29°35' W 090°37'0 0.0
2017-Nov-17 21:58N 29°35' W 090°37'0 0.0
2017-Nov-17 21:28N 29°35' W 090°37'0 0.0
2017-Nov-17 20:58N 29°35' W 090°37'0 0.0
2017-Nov-17 20:25N 29°35' W 090°37'0 0.0
2017-Nov-17 19:55N 29°35' W 090°37'0 0.0
2017-Nov-17 19:28N 29°35' W 090°37'0 0.0
2017-Nov-17 18:55N 29°35' W 090°37'0 0.0
2017-Nov-17 18:28N 29°35' W 090°37'0 0.0
2017-Nov-17 17:55N 29°35' W 090°37'0 0.0
2017-Nov-17 17:19N 29°35' W 090°37'0 0.0
2017-Nov-17 16:55N 29°35' W 090°37'0 0.0
2017-Nov-17 16:25N 29°35' W 090°37'0 0.0
2017-Nov-17 15:58N 29°35' W 090°37'0 0.0
2017-Nov-17 15:28N 29°35' W 090°37'0 0.0
2017-Nov-17 14:55N 29°35' W 090°37'0 0.0
2017-Nov-17 14:28N 29°35' W 090°37'0 0.0
2017-Nov-17 13:58N 29°35' W 090°37'0 0.0
2017-Nov-17 13:28N 29°35' W 090°37'0 0.0
2017-Nov-17 12:58N 29°35' W 090°37'0 0.0
2017-Nov-17 12:28N 29°35' W 090°37'0 0.0
2017-Nov-17 11:58N 29°35' W 090°37'0 0.0
2017-Nov-17 11:25N 29°35' W 090°37'0 0.0
2017-Nov-17 10:58N 29°35' W 090°37'0 0.0
2017-Nov-17 10:28N 29°35' W 090°37'0 0.0
2017-Nov-17 09:58N 29°35' W 090°37'0 0.0
2017-Nov-17 09:28N 29°35' W 090°37'0 0.0
2017-Nov-17 08:58N 29°35' W 090°37'0 0.0
2017-Nov-17 08:28N 29°35' W 090°37'0 0.0
2017-Nov-17 07:58N 29°35' W 090°37'0 0.0
2017-Nov-17 07:28N 29°35' W 090°37'0 0.0
2017-Nov-17 06:58N 29°35' W 090°37'0 0.0
2017-Nov-17 06:28N 29°35' W 090°37'0 0.0
2017-Nov-17 05:58N 29°35' W 090°37'0 0.0
2017-Nov-17 05:28N 29°35' W 090°37'0 0.0
2017-Nov-17 04:58N 29°35' W 090°37'0 0.0
2017-Nov-17 04:28N 29°35' W 090°37'0 0.0
2017-Nov-17 03:58N 29°35' W 090°37'0 0.0
2017-Nov-17 03:25N 29°35' W 090°37'0 0.0
2017-Nov-17 02:58N 29°35' W 090°37'0 0.0
2017-Nov-17 02:28N 29°35' W 090°37'0 0.0
2017-Nov-17 01:58N 29°35' W 090°37'0 0.0
2017-Nov-17 01:28N 29°35' W 090°37'0 0.0
2017-Nov-17 00:55N 29°35' W 090°37'0 0.0
2017-Nov-17 00:28N 29°35' W 090°37'0 0.0
2017-Nov-16 23:58N 29°35' W 090°37'0 0.0
2017-Nov-16 23:28N 29°35' W 090°37'0 0.0
2017-Nov-16 22:58N 29°35' W 090°37'0 0.0
2017-Nov-16 22:28N 29°35' W 090°37'0 0.0
2017-Nov-16 21:58N 29°35' W 090°37'0 0.0
2017-Nov-16 21:25N 29°35' W 090°37'0 0.0
2017-Nov-16 20:58N 29°35' W 090°37'0 0.0
2017-Nov-16 20:28N 29°35' W 090°37'0 0.0
2017-Nov-16 19:58N 29°35' W 090°37'0 0.0
2017-Nov-16 19:28N 29°35' W 090°37'0 0.0
2017-Nov-16 18:58N 29°35' W 090°37'0 0.0
2017-Nov-16 18:28N 29°35' W 090°37'0 0.0
2017-Nov-16 17:58N 29°35' W 090°37'0 0.0
2017-Nov-16 17:28N 29°35' W 090°37'0 0.0
2017-Nov-16 16:58N 29°35' W 090°37'0 0.0
2017-Nov-16 16:28N 29°35' W 090°37'0 0.0
2017-Nov-16 15:58N 29°35' W 090°37'0 0.0
2017-Nov-16 15:28N 29°35' W 090°37'0 0.0
2017-Nov-16 14:58N 29°35' W 090°37'0 0.1
2017-Nov-16 14:30N 29°35' W 090°37'0 0.2
2017-Nov-16 14:00N 29°35' W 090°36'0 0.0
2017-Nov-16 13:30N 29°35' W 090°36'0 0.0
2017-Nov-16 13:00N 29°35' W 090°36'0 0.0
2017-Nov-16 12:30N 29°35' W 090°36'0 0.0
2017-Nov-16 12:00N 29°35' W 090°36'0 0.0
2017-Nov-16 11:30N 29°35' W 090°36'0 0.0
2017-Nov-16 11:00N 29°35' W 090°36'0 0.0
2017-Nov-16 10:24N 29°35' W 090°36'0 0.0
2017-Nov-16 10:00N 29°35' W 090°36'0 0.0
2017-Nov-16 09:30N 29°35' W 090°36'0 0.0
2017-Nov-16 09:00N 29°35' W 090°36'0 0.0
2017-Nov-16 08:30N 29°35' W 090°36'0 0.0
2017-Nov-16 08:00N 29°35' W 090°36'0 0.0
2017-Nov-16 07:30N 29°35' W 090°36'0 0.0
2017-Nov-16 07:00N 29°35' W 090°36'0 0.0
2017-Nov-16 06:30N 29°35' W 090°36'0 0.0
2017-Nov-16 06:00N 29°35' W 090°36'0 0.0
2017-Nov-16 05:30N 29°35' W 090°36'0 0.0
2017-Nov-16 05:00N 29°35' W 090°36'0 0.0
2017-Nov-16 04:30N 29°35' W 090°36'0 0.0
2017-Nov-16 03:54N 29°35' W 090°36'0 0.0
2017-Nov-16 03:30N 29°35' W 090°36'0 0.0
2017-Nov-16 03:00N 29°35' W 090°36'0 0.0
2017-Nov-16 02:30N 29°35' W 090°36'0 0.0
2017-Nov-16 02:00N 29°35' W 090°36'0 0.0
2017-Nov-16 01:30N 29°35' W 090°36'0 0.0
2017-Nov-16 01:00N 29°35' W 090°36'0 0.0
2017-Nov-16 00:30N 29°35' W 090°36'0 0.0
2017-Nov-16 00:00N 29°35' W 090°36'0 0.0
2017-Nov-15 23:30N 29°35' W 090°36'0 0.0
2017-Nov-15 23:00N 29°35' W 090°36'0 0.0
2017-Nov-15 22:30N 29°35' W 090°36'0 0.0
2017-Nov-15 22:00N 29°35' W 090°36'0 0.0
2017-Nov-15 21:30N 29°35' W 090°36'0 0.0
2017-Nov-15 20:00N 29°35' W 090°36'0 0.0
2017-Nov-15 19:30N 29°35' W 090°36'0 0.0
2017-Nov-15 18:54N 29°35' W 090°36'0 0.0
2017-Nov-15 18:30N 29°35' W 090°36'0 0.0
2017-Nov-15 18:00N 29°35' W 090°36'0 0.0
2017-Nov-15 15:36N 29°35' W 090°36'0 0.0
2017-Nov-15 15:24N 29°35' W 090°36'0 0.0
2017-Nov-15 15:00N 29°35' W 090°36'0 0.0
2017-Nov-15 14:30N 29°35' W 090°36'0 0.0
2017-Nov-15 14:00N 29°35' W 090°36'0 0.0
2017-Nov-15 13:29N 29°35' W 090°36'0 0.0
2017-Nov-15 13:00N 29°35' W 090°36'0 0.0
2017-Nov-15 12:17N 29°35' W 090°36'0 0.0
2017-Nov-15 12:00N 29°35' W 090°36'0 0.0
2017-Nov-15 11:27N 29°35' W 090°36'0 0.0
2017-Nov-15 11:00N 29°35' W 090°36'0 0.0
2017-Nov-15 10:30N 29°35' W 090°36'0 0.0
2017-Nov-15 10:00N 29°35' W 090°36'0 0.0
2017-Nov-15 09:12N 29°35' W 090°36'0 0.0
2017-Nov-15 09:00N 29°35' W 090°36'0 0.0
2017-Nov-15 08:30N 29°35' W 090°36'0 0.0
2017-Nov-15 07:53N 29°35' W 090°36'0 0.0
2017-Nov-15 07:30N 29°35' W 090°36'0 0.0
2017-Nov-15 07:00N 29°35' W 090°36'0 0.0
2017-Nov-15 06:24N 29°35' W 090°36'0 0.0
2017-Nov-15 06:00N 29°35' W 090°36'0 0.0
2017-Nov-15 05:30N 29°35' W 090°36'0 0.0
2017-Nov-15 04:47N 29°35' W 090°36'0 0.0
2017-Nov-15 04:29N 29°35' W 090°36'0 0.0
2017-Nov-15 04:00N 29°35' W 090°36'0 0.0
2017-Nov-15 03:29N 29°35' W 090°36'0 0.0
2017-Nov-15 02:59N 29°35' W 090°36'0 0.0
2017-Nov-15 02:29N 29°35' W 090°36'0 0.0
2017-Nov-15 01:59N 29°35' W 090°36'0 0.0
2017-Nov-15 01:23N 29°35' W 090°36'0 0.0
2017-Nov-15 00:59N 29°35' W 090°36'0 0.0
2017-Nov-15 00:29N 29°35' W 090°36'0 0.0
2017-Nov-14 23:59N 29°35' W 090°36'0 0.0
2017-Nov-14 23:29N 29°35' W 090°36'0 0.0
2017-Nov-14 23:00N 29°35' W 090°36'0 0.0
2017-Nov-14 22:30N 29°35' W 090°36'0 0.0
2017-Nov-14 21:47N 29°35' W 090°36'0 0.0
2017-Nov-14 21:29N 29°35' W 090°36'0 0.0
2017-Nov-14 20:59N 29°35' W 090°36'0 0.0
2017-Nov-14 20:29N 29°35' W 090°36'0 0.0
2017-Nov-14 20:00N 29°35' W 090°36'0 0.0
2017-Nov-14 19:29N 29°35' W 090°36'0 0.0
2017-Nov-14 18:53N 29°35' W 090°36'0 0.0
2017-Nov-14 18:29N 29°35' W 090°36'0 0.0
2017-Nov-14 17:59N 29°35' W 090°36'0 0.0
2017-Nov-14 17:29N 29°35' W 090°36'0 0.0
2017-Nov-14 16:59N 29°35' W 090°36'0 0.0
2017-Nov-14 16:29N 29°35' W 090°36'0 0.0
2017-Nov-14 15:59N 29°35' W 090°36'0 0.0
2017-Nov-14 15:29N 29°35' W 090°36'0 0.0
2017-Nov-14 15:00N 29°35' W 090°36'0 0.0
2017-Nov-14 14:29N 29°35' W 090°36'0 0.0
2017-Nov-14 13:59N 29°35' W 090°36'0 0.0
2017-Nov-14 13:23N 29°35' W 090°36'0 0.0
2017-Nov-14 12:59N 29°35' W 090°36'0 0.0
2017-Nov-14 12:29N 29°35' W 090°36'0 0.0
2017-Nov-14 11:59N 29°35' W 090°36'0 0.0
2017-Nov-14 11:29N 29°35' W 090°36'0 0.0
2017-Nov-14 10:59N 29°35' W 090°36'0 0.0
2017-Nov-14 10:29N 29°35' W 090°36'0 0.0
2017-Nov-14 10:00N 29°35' W 090°36'0 0.0
2017-Nov-14 09:29N 29°35' W 090°36'0 0.0
2017-Nov-14 08:59N 29°35' W 090°36'0 0.0
2017-Nov-14 08:29N 29°35' W 090°36'0 0.0
2017-Nov-14 07:59N 29°35' W 090°36'0 0.0
2017-Nov-14 07:29N 29°35' W 090°36'0 0.0
2017-Nov-14 06:53N 29°35' W 090°36'0 0.0
2017-Nov-14 06:29N 29°35' W 090°36'0 0.0
2017-Nov-14 05:59N 29°35' W 090°36'0 0.0
2017-Nov-14 05:29N 29°35' W 090°36'0 0.0
2017-Nov-14 04:59N 29°35' W 090°36'0 0.0
2017-Nov-14 04:29N 29°35' W 090°36'0 0.0
2017-Nov-14 03:59N 29°35' W 090°36'0 0.0
2017-Nov-14 03:29N 29°35' W 090°36'0 0.0
2017-Nov-14 02:59N 29°35' W 090°36'0 0.0
2017-Nov-14 02:29N 29°35' W 090°36'0 0.0
2017-Nov-14 01:59N 29°35' W 090°36'0 0.0
2017-Nov-14 01:29N 29°35' W 090°36'0 0.0
2017-Nov-14 00:59N 29°35' W 090°36'0 0.0
2017-Nov-14 00:29N 29°35' W 090°36'0 0.0
2017-Nov-13 23:59N 29°35' W 090°36'0 0.0
2017-Nov-13 23:29N 29°35' W 090°36'0 0.0
2017-Nov-13 22:59N 29°35' W 090°36'0 0.0
2017-Nov-13 22:29N 29°35' W 090°36'0 0.0
2017-Nov-13 21:59N 29°35' W 090°36'0 0.0
2017-Nov-13 01:53N 29°35' W 090°36'0 0.0
2017-Nov-13 01:29N 29°35' W 090°36'0 0.0
2017-Nov-13 00:59N 29°35' W 090°36'0 0.0
2017-Nov-13 00:29N 29°35' W 090°36'0 0.0
2017-Nov-12 23:59N 29°35' W 090°36'0 0.0
2017-Nov-12 23:29N 29°35' W 090°36'0 0.0
2017-Nov-12 22:53N 29°35' W 090°36'0 0.0
2017-Nov-12 22:29N 29°35' W 090°36'0 0.0
2017-Nov-12 21:59N 29°35' W 090°36'0 0.0
2017-Nov-12 21:29N 29°35' W 090°36'0 0.0
2017-Nov-12 20:59N 29°35' W 090°36'0 0.0
2017-Nov-12 20:29N 29°35' W 090°36'0 0.0
2017-Nov-12 19:59N 29°35' W 090°36'0 0.0
2017-Nov-12 19:29N 29°35' W 090°36'0 0.0
2017-Nov-12 18:59N 29°35' W 090°36'0 0.0
2017-Nov-12 18:29N 29°35' W 090°36'0 0.0
2017-Nov-12 17:59N 29°35' W 090°36'0 0.0
2017-Nov-12 17:29N 29°35' W 090°36'0 0.0
2017-Nov-12 16:59N 29°35' W 090°36'0 0.0
2017-Nov-12 16:29N 29°35' W 090°36'0 0.0
2017-Nov-12 15:59N 29°35' W 090°36'0 0.0
2017-Nov-12 15:29N 29°35' W 090°36'0 0.0
2017-Nov-12 14:59N 29°35' W 090°36'0 0.0
2017-Nov-12 14:23N 29°35' W 090°36'0 0.0
2017-Nov-12 13:59N 29°35' W 090°36'0 0.0
2017-Nov-12 13:29N 29°35' W 090°36'0 0.0
2017-Nov-12 12:59N 29°35' W 090°36'0 0.0
2017-Nov-12 12:29N 29°35' W 090°36'0 0.0
2017-Nov-12 11:59N 29°35' W 090°36'0 0.0
2017-Nov-12 11:29N 29°35' W 090°36'0 0.0
2017-Nov-12 10:53N 29°35' W 090°36'0 0.0
2017-Nov-12 10:29N 29°35' W 090°36'0 0.0
2017-Nov-12 09:59N 29°35' W 090°36'0 0.0
2017-Nov-12 09:29N 29°35' W 090°36'0 0.0
2017-Nov-12 08:53N 29°35' W 090°36'0 0.0
2017-Nov-12 08:29N 29°35' W 090°36'0 0.0
2017-Nov-12 07:59N 29°35' W 090°36'0 0.0
2017-Nov-12 07:29N 29°35' W 090°36'0 0.0
2017-Nov-12 06:59N 29°35' W 090°36'0 0.0
2017-Nov-12 06:29N 29°35' W 090°36'0 0.0
2017-Nov-12 05:59N 29°35' W 090°36'0 0.0
2017-Nov-12 05:29N 29°35' W 090°36'0 0.0
2017-Nov-12 04:59N 29°35' W 090°36'0 0.0
2017-Nov-12 04:29N 29°35' W 090°36'0 0.0
2017-Nov-12 03:59N 29°35' W 090°36'0 0.0
2017-Nov-12 03:29N 29°35' W 090°36'0 0.0
2017-Nov-12 02:59N 29°35' W 090°36'0 0.0
2017-Nov-12 02:29N 29°35' W 090°36'0 0.0
2017-Nov-12 01:59N 29°35' W 090°36'0 0.0
2017-Nov-12 01:29N 29°35' W 090°36'0 0.0
2017-Nov-12 00:53N 29°35' W 090°36'0 0.0
2017-Nov-12 00:29N 29°35' W 090°36'0 0.0
2017-Nov-11 23:59N 29°35' W 090°36'0 0.0
2017-Nov-11 23:29N 29°35' W 090°36'0 0.0
2017-Nov-11 22:59N 29°35' W 090°36'0 0.0
2017-Nov-11 22:29N 29°35' W 090°36'0 0.0
2017-Nov-11 21:59N 29°35' W 090°36'0 0.0
2017-Nov-11 21:29N 29°35' W 090°36'0 0.0
2017-Nov-11 20:59N 29°35' W 090°36'0 0.0
2017-Nov-11 20:29N 29°35' W 090°36'0 0.0
2017-Nov-11 19:59N 29°35' W 090°36'0 0.0
2017-Nov-11 19:17N 29°35' W 090°36'0 0.0
2017-Nov-11 17:53N 29°35' W 090°36'0 0.0
2017-Nov-11 17:23N 29°35' W 090°36'0 0.0
2017-Nov-11 16:53N 29°35' W 090°36'0 0.0
2017-Nov-11 16:23N 29°35' W 090°36'0 0.0
2017-Nov-11 15:59N 29°35' W 090°36'0 0.0
2017-Nov-11 15:29N 29°35' W 090°36'0 0.0
2017-Nov-11 14:59N 29°35' W 090°36'0 0.0
2017-Nov-11 14:29N 29°35' W 090°36'0 0.0
2017-Nov-11 13:59N 29°35' W 090°36'0 0.0
2017-Nov-11 13:29N 29°35' W 090°36'0 0.0
2017-Nov-11 12:59N 29°35' W 090°36'0 0.0
2017-Nov-11 12:29N 29°35' W 090°36'0 0.0
2017-Nov-11 11:59N 29°35' W 090°36'0 0.0
2017-Nov-11 11:29N 29°35' W 090°36'0 0.0
2017-Nov-11 10:53N 29°35' W 090°36'0 0.0
2017-Nov-11 10:29N 29°35' W 090°36'0 0.0
2017-Nov-11 09:59N 29°35' W 090°36'0 0.0
2017-Nov-11 09:29N 29°35' W 090°36'0 0.0
2017-Nov-11 08:59N 29°35' W 090°36'0 0.0
2017-Nov-11 08:29N 29°35' W 090°36'0 0.0
2017-Nov-11 07:53N 29°35' W 090°36'0 0.0
2017-Nov-11 07:29N 29°35' W 090°36'0 0.0
2017-Nov-11 06:59N 29°35' W 090°36'0 0.0
2017-Nov-11 06:29N 29°35' W 090°36'0 0.0
2017-Nov-11 05:59N 29°35' W 090°36'0 0.0
2017-Nov-11 05:29N 29°35' W 090°36'0 0.0
2017-Nov-11 04:59N 29°35' W 090°36'0 0.0
2017-Nov-11 04:29N 29°35' W 090°36'0 0.0
2017-Nov-11 03:59N 29°35' W 090°36'0 0.0
2017-Nov-11 03:29N 29°35' W 090°36'0 0.0
2017-Nov-11 02:59N 29°35' W 090°36'0 0.0
2017-Nov-11 02:29N 29°35' W 090°36'0 0.0
2017-Nov-11 01:59N 29°35' W 090°36'0 0.0
2017-Nov-11 01:29N 29°35' W 090°36'0 0.0
2017-Nov-11 00:59N 29°35' W 090°36'0 0.0
2017-Nov-11 00:29N 29°35' W 090°36'0 0.0
2017-Nov-10 23:53N 29°35' W 090°36'0 0.0
2017-Nov-10 23:29N 29°35' W 090°36'0 0.0
2017-Nov-10 22:59N 29°35' W 090°36'0 0.0
2017-Nov-10 22:29N 29°35' W 090°36'0 0.0
2017-Nov-10 21:59N 29°35' W 090°36'0 0.0
2017-Nov-10 21:29N 29°35' W 090°36'0 0.0
2017-Nov-10 20:59N 29°35' W 090°36'0 0.0
2017-Nov-10 20:23N 29°35' W 090°36'0 0.0
2017-Nov-10 19:59N 29°35' W 090°36'0 0.0
2017-Nov-10 19:29N 29°35' W 090°36'0 0.0
2017-Nov-10 18:59N 29°35' W 090°36'0 0.0
2017-Nov-10 18:29N 29°35' W 090°36'0 0.0
2017-Nov-10 17:59N 29°35' W 090°36'0 0.0
2017-Nov-10 17:23N 29°35' W 090°36'0 0.0
2017-Nov-10 16:08N 29°35' W 090°36'0 0.0
2017-Nov-10 15:59N 29°35' W 090°36'0 0.0
2017-Nov-10 15:29N 29°35' W 090°36'0 0.0
2017-Nov-10 14:59N 29°35' W 090°36'0 0.0
2017-Nov-10 14:29N 29°35' W 090°36'0 0.0
2017-Nov-10 13:59N 29°35' W 090°36'0 0.0
2017-Nov-10 13:17N 29°35' W 090°36'0 0.0
2017-Nov-10 12:59N 29°35' W 090°36'0 0.0
2017-Nov-10 12:29N 29°35' W 090°36'0 0.0
2017-Nov-10 10:23N 29°35' W 090°36'0 0.0
2017-Nov-10 09:59N 29°35' W 090°36'0 0.0
2017-Nov-10 09:29N 29°35' W 090°36'0 0.0
2017-Nov-10 08:59N 29°35' W 090°36'0 0.0
2017-Nov-10 08:29N 29°35' W 090°36'0 0.0
2017-Nov-10 07:59N 29°35' W 090°36'0 0.0
2017-Nov-10 07:29N 29°35' W 090°36'0 0.0
2017-Nov-10 06:59N 29°35' W 090°36'0 0.0
2017-Nov-10 06:29N 29°35' W 090°36'0 0.0
2017-Nov-10 05:59N 29°35' W 090°36'0 0.0
2017-Nov-10 05:29N 29°35' W 090°36'0 0.0
2017-Nov-10 04:59N 29°35' W 090°36'0 0.0
2017-Nov-10 04:29N 29°35' W 090°36'0 0.0
2017-Nov-10 03:59N 29°35' W 090°36'0 0.0
2017-Nov-10 03:29N 29°35' W 090°36'0 0.0
2017-Nov-10 02:59N 29°35' W 090°36'0 0.0
2017-Nov-10 02:29N 29°35' W 090°36'0 0.0
2017-Nov-10 01:59N 29°35' W 090°36'0 0.0
2017-Nov-10 01:29N 29°35' W 090°36'0 0.0
2017-Nov-10 00:59N 29°35' W 090°36'0 0.0
2017-Nov-10 00:29N 29°35' W 090°36'0 0.0
2017-Nov-09 23:59N 29°35' W 090°36'0 0.0
2017-Nov-09 23:29N 29°35' W 090°36'0 0.0
2017-Nov-09 22:59N 29°35' W 090°36'0 0.0
2017-Nov-09 22:29N 29°35' W 090°36'0 0.0
2017-Nov-09 21:59N 29°35' W 090°36'  
Track history (hours):
 
Tides and Currents Weather Stations Pressure Air Temp Water Temp Dewpoint Dewpoint Depression Visibility Wind Speed Wind Dir Waves Ship Positions

Blue Capricorn

Owner: Matheson, Kenneth R, Houston, TX. More information available from US FCC via Universal Licensing System and Coast Guard Vessel Documentation Center.

Last reported at 2017-Nov-19 21:30 UTC. Time now 2017-Nov-19 21:52 UTC.
Position N 30°04' W 093°22'.

Length 23 m; draft 3 m.

Type: . MMSI: 367656820.

Date/timePositionNaut miles runAvg speedWind from/ knotsBaromVisibWave heightAir tempDewpointWater temp
2017-Nov-19 21:30N 30°04' W 093°22'0 0.1
2017-Nov-19 21:00N 30°04' W 093°22'0 0.0
2017-Nov-19 20:30N 30°04' W 093°22'0 0.1
2017-Nov-19 20:00N 30°04' W 093°22'2 4.7
2017-Nov-19 19:30N 30°05' W 093°20'2 3.5
2017-Nov-19 19:00N 30°06' W 093°18'0 0.0
2017-Nov-19 18:30N 30°06' W 093°18'0 0.0
2017-Nov-19 18:00N 30°06' W 093°18'1 2.6
2017-Nov-19 17:30N 30°05' W 093°18'1 2.2
2017-Nov-19 17:00N 30°05' W 093°17'3 5.3
2017-Nov-19 16:30N 30°02' W 093°15'2 4.5
2017-Nov-19 16:00N 30°00' W 093°14'3 5.9
2017-Nov-19 15:30N 29°58' W 093°11'3 5.9
2017-Nov-19 15:00N 29°56' W 093°09'3 6.0
2017-Nov-19 14:30N 29°56' W 093°05'37 5.7
2017-Nov-19 07:53N 29°52' W 092°23'2 5.1
2017-Nov-19 07:30N 29°51' W 092°21'3 5.7
2017-Nov-19 07:01N 29°50' W 092°18'3 5.7
2017-Nov-19 06:30N 29°48' W 092°15'2 3.2
2017-Nov-19 06:00N 29°48' W 092°14'3 5.9
2017-Nov-19 05:30N 29°47' W 092°10'3 6.7
2017-Nov-19 05:00N 29°48' W 092°07'3 6.9
2017-Nov-19 04:30N 29°49' W 092°03'3 6.3
2017-Nov-19 04:00N 29°50' W 091°60'57 5.8
2017-Nov-18 18:08N 29°34' W 090°56'1 6.3
2017-Nov-18 17:59N 29°34' W 090°55'3 6.5
2017-Nov-18 17:30N 29°32' W 090°52'3 6.4
2017-Nov-18 17:00N 29°32' W 090°48'3 5.6
2017-Nov-18 16:30N 29°33' W 090°45'3 5.1
2017-Nov-18 16:00N 29°35' W 090°43'2 4.9
2017-Nov-18 15:30N 29°37' W 090°41'3 5.8
2017-Nov-18 15:00N 29°35' W 090°39'2 3.2
2017-Nov-18 14:25N 29°35' W 090°37'0 0.0
2017-Nov-18 13:58N 29°35' W 090°37'0 0.0
2017-Nov-18 13:25N 29°35' W 090°37'0 0.0
2017-Nov-18 12:58N 29°35' W 090°37'0 0.0
2017-Nov-18 12:25N 29°35' W 090°37'0 0.0
2017-Nov-18 11:58N 29°35' W 090°37'0 0.0
2017-Nov-18 11:28N 29°35' W 090°37'0 0.0
2017-Nov-18 10:55N 29°35' W 090°37'0 0.0
2017-Nov-18 10:28N 29°35' W 090°37'0 0.0
2017-Nov-18 09:55N 29°35' W 090°37'0 0.0
2017-Nov-18 09:25N 29°35' W 090°37'0 0.0
2017-Nov-18 08:58N 29°35' W 090°37'0 0.0
2017-Nov-18 08:25N 29°35' W 090°37'0 0.0
2017-Nov-18 07:58N 29°35' W 090°37'0 0.0
2017-Nov-18 07:28N 29°35' W 090°37'0 0.0
2017-Nov-18 06:58N 29°35' W 090°37'0 0.0
2017-Nov-18 06:28N 29°35' W 090°37'0 0.0
2017-Nov-18 05:55N 29°35' W 090°37'0 0.0
2017-Nov-18 05:25N 29°35' W 090°37'0 0.0
2017-Nov-18 04:58N 29°35' W 090°37'0 0.0
2017-Nov-18 04:25N 29°35' W 090°37'0 0.0
2017-Nov-18 03:58N 29°35' W 090°37'0 0.0
2017-Nov-18 03:28N 29°35' W 090°37'0 0.0
2017-Nov-18 02:55N 29°35' W 090°37'0 0.0
2017-Nov-18 02:28N 29°35' W 090°37'0 0.0
2017-Nov-18 01:55N 29°35' W 090°37'0 0.0
2017-Nov-18 01:25N 29°35' W 090°37'0 0.0
2017-Nov-18 00:58N 29°35' W 090°37'0 0.0
2017-Nov-18 00:28N 29°35' W 090°37'0 0.0
2017-Nov-17 23:58N 29°35' W 090°37'0 0.0
2017-Nov-17 23:28N 29°35' W 090°37'0 0.0
2017-Nov-17 22:55N 29°35' W 090°37'0 0.0
2017-Nov-17 22:28N 29°35' W 090°37'0 0.0
2017-Nov-17 21:58N 29°35' W 090°37'0 0.0
2017-Nov-17 21:28N 29°35' W 090°37'0 0.0
2017-Nov-17 20:58N 29°35' W 090°37'0 0.0
2017-Nov-17 20:25N 29°35' W 090°37'0 0.0
2017-Nov-17 19:55N 29°35' W 090°37'0 0.0
2017-Nov-17 19:28N 29°35' W 090°37'0 0.0
2017-Nov-17 18:55N 29°35' W 090°37'0 0.0
2017-Nov-17 18:28N 29°35' W 090°37'0 0.0
2017-Nov-17 17:55N 29°35' W 090°37'0 0.0
2017-Nov-17 17:19N 29°35' W 090°37'0 0.0
2017-Nov-17 16:55N 29°35' W 090°37'0 0.0
2017-Nov-17 16:25N 29°35' W 090°37'0 0.0
2017-Nov-17 15:58N 29°35' W 090°37'0 0.0
2017-Nov-17 15:28N 29°35' W 090°37'0 0.0
2017-Nov-17 14:55N 29°35' W 090°37'0 0.0
2017-Nov-17 14:28N 29°35' W 090°37'0 0.0
2017-Nov-17 13:58N 29°35' W 090°37'0 0.0
2017-Nov-17 13:28N 29°35' W 090°37'0 0.0
2017-Nov-17 12:58N 29°35' W 090°37'0 0.0
2017-Nov-17 12:28N 29°35' W 090°37'0 0.0
2017-Nov-17 11:58N 29°35' W 090°37'0 0.0
2017-Nov-17 11:25N 29°35' W 090°37'0 0.0
2017-Nov-17 10:58N 29°35' W 090°37'0 0.0
2017-Nov-17 10:28N 29°35' W 090°37'0 0.0
2017-Nov-17 09:58N 29°35' W 090°37'0 0.0
2017-Nov-17 09:28N 29°35' W 090°37'0 0.0
2017-Nov-17 08:58N 29°35' W 090°37'0 0.0
2017-Nov-17 08:28N 29°35' W 090°37'0 0.0
2017-Nov-17 07:58N 29°35' W 090°37'0 0.0
2017-Nov-17 07:28N 29°35' W 090°37'0 0.0
2017-Nov-17 06:58N 29°35' W 090°37'0 0.0
2017-Nov-17 06:28N 29°35' W 090°37'0 0.0
2017-Nov-17 05:58N 29°35' W 090°37'0 0.0
2017-Nov-17 05:28N 29°35' W 090°37'0 0.0
2017-Nov-17 04:58N 29°35' W 090°37'0 0.0
2017-Nov-17 04:28N 29°35' W 090°37'0 0.0
2017-Nov-17 03:58N 29°35' W 090°37'0 0.0
2017-Nov-17 03:25N 29°35' W 090°37'0 0.0
2017-Nov-17 02:58N 29°35' W 090°37'0 0.0
2017-Nov-17 02:28N 29°35' W 090°37'0 0.0
2017-Nov-17 01:58N 29°35' W 090°37'0 0.0
2017-Nov-17 01:28N 29°35' W 090°37'0 0.0
2017-Nov-17 00:55N 29°35' W 090°37'0 0.0
2017-Nov-17 00:28N 29°35' W 090°37'0 0.0
2017-Nov-16 23:58N 29°35' W 090°37'0 0.0
2017-Nov-16 23:28N 29°35' W 090°37'0 0.0
2017-Nov-16 22:58N 29°35' W 090°37'0 0.0
2017-Nov-16 22:28N 29°35' W 090°37'0 0.0
2017-Nov-16 21:58N 29°35' W 090°37'0 0.0
2017-Nov-16 21:25N 29°35' W 090°37'0 0.0
2017-Nov-16 20:58N 29°35' W 090°37'0 0.0
2017-Nov-16 20:28N 29°35' W 090°37'0 0.0
2017-Nov-16 19:58N 29°35' W 090°37'0 0.0
2017-Nov-16 19:28N 29°35' W 090°37'0 0.0
2017-Nov-16 18:58N 29°35' W 090°37'0 0.0
2017-Nov-16 18:28N 29°35' W 090°37'0 0.0
2017-Nov-16 17:58N 29°35' W 090°37'0 0.0
2017-Nov-16 17:28N 29°35' W 090°37'0 0.0
2017-Nov-16 16:58N 29°35' W 090°37'0 0.0
2017-Nov-16 16:28N 29°35' W 090°37'0 0.0
2017-Nov-16 15:58N 29°35' W 090°37'0 0.0
2017-Nov-16 15:28N 29°35' W 090°37'0 0.0
2017-Nov-16 14:58N 29°35' W 090°37'0 0.1
2017-Nov-16 14:30N 29°35' W 090°37'0 0.2
2017-Nov-16 14:00N 29°35' W 090°36'0 0.0
2017-Nov-16 13:30N 29°35' W 090°36'0 0.0
2017-Nov-16 13:00N 29°35' W 090°36'0 0.0
2017-Nov-16 12:30N 29°35' W 090°36'0 0.0
2017-Nov-16 12:00N 29°35' W 090°36'0 0.0
2017-Nov-16 11:30N 29°35' W 090°36'0 0.0
2017-Nov-16 11:00N 29°35' W 090°36'0 0.0
2017-Nov-16 10:24N 29°35' W 090°36'0 0.0
2017-Nov-16 10:00N 29°35' W 090°36'0 0.0
2017-Nov-16 09:30N 29°35' W 090°36'0 0.0
2017-Nov-16 09:00N 29°35' W 090°36'0 0.0
2017-Nov-16 08:30N 29°35' W 090°36'0 0.0
2017-Nov-16 08:00N 29°35' W 090°36'0 0.0
2017-Nov-16 07:30N 29°35' W 090°36'0 0.0
2017-Nov-16 07:00N 29°35' W 090°36'0 0.0
2017-Nov-16 06:30N 29°35' W 090°36'0 0.0
2017-Nov-16 06:00N 29°35' W 090°36'0 0.0
2017-Nov-16 05:30N 29°35' W 090°36'0 0.0
2017-Nov-16 05:00N 29°35' W 090°36'0 0.0
2017-Nov-16 04:30N 29°35' W 090°36'0 0.0
2017-Nov-16 03:54N 29°35' W 090°36'0 0.0
2017-Nov-16 03:30N 29°35' W 090°36'0 0.0
2017-Nov-16 03:00N 29°35' W 090°36'0 0.0
2017-Nov-16 02:30N 29°35' W 090°36'0 0.0
2017-Nov-16 02:00N 29°35' W 090°36'0 0.0
2017-Nov-16 01:30N 29°35' W 090°36'0 0.0
2017-Nov-16 01:00N 29°35' W 090°36'0 0.0
2017-Nov-16 00:30N 29°35' W 090°36'0 0.0
2017-Nov-16 00:00N 29°35' W 090°36'0 0.0
2017-Nov-15 23:30N 29°35' W 090°36'0 0.0
2017-Nov-15 23:00N 29°35' W 090°36'0 0.0
2017-Nov-15 22:30N 29°35' W 090°36'0 0.0
2017-Nov-15 22:00N 29°35' W 090°36'0 0.0
2017-Nov-15 21:30N 29°35' W 090°36'0 0.0
2017-Nov-15 20:00N 29°35' W 090°36'0 0.0
2017-Nov-15 19:30N 29°35' W 090°36'0 0.0
2017-Nov-15 18:54N 29°35' W 090°36'0 0.0
2017-Nov-15 18:30N 29°35' W 090°36'0 0.0
2017-Nov-15 18:00N 29°35' W 090°36'0 0.0
2017-Nov-15 15:36N 29°35' W 090°36'0 0.0
2017-Nov-15 15:24N 29°35' W 090°36'0 0.0
2017-Nov-15 15:00N 29°35' W 090°36'0 0.0
2017-Nov-15 14:30N 29°35' W 090°36'0 0.0
2017-Nov-15 14:00N 29°35' W 090°36'0 0.0
2017-Nov-15 13:29N 29°35' W 090°36'0 0.0
2017-Nov-15 13:00N 29°35' W 090°36'0 0.0
2017-Nov-15 12:17N 29°35' W 090°36'0 0.0
2017-Nov-15 12:00N 29°35' W 090°36'0 0.0
2017-Nov-15 11:27N 29°35' W 090°36'0 0.0
2017-Nov-15 11:00N 29°35' W 090°36'0 0.0
2017-Nov-15 10:30N 29°35' W 090°36'0 0.0
2017-Nov-15 10:00N 29°35' W 090°36'0 0.0
2017-Nov-15 09:12N 29°35' W 090°36'0 0.0
2017-Nov-15 09:00N 29°35' W 090°36'0 0.0
2017-Nov-15 08:30N 29°35' W 090°36'0 0.0
2017-Nov-15 07:53N 29°35' W 090°36'0 0.0
2017-Nov-15 07:30N 29°35' W 090°36'0 0.0
2017-Nov-15 07:00N 29°35' W 090°36'0 0.0
2017-Nov-15 06:24N 29°35' W 090°36'0 0.0
2017-Nov-15 06:00N 29°35' W 090°36'0 0.0
2017-Nov-15 05:30N 29°35' W 090°36'0 0.0
2017-Nov-15 04:47N 29°35' W 090°36'0 0.0
2017-Nov-15 04:29N 29°35' W 090°36'0 0.0
2017-Nov-15 04:00N 29°35' W 090°36'0 0.0
2017-Nov-15 03:29N 29°35' W 090°36'0 0.0
2017-Nov-15 02:59N 29°35' W 090°36'0 0.0
2017-Nov-15 02:29N 29°35' W 090°36'0 0.0
2017-Nov-15 01:59N 29°35' W 090°36'0 0.0
2017-Nov-15 01:23N 29°35' W 090°36'0 0.0
2017-Nov-15 00:59N 29°35' W 090°36'0 0.0
2017-Nov-15 00:29N 29°35' W 090°36'0 0.0
2017-Nov-14 23:59N 29°35' W 090°36'0 0.0
2017-Nov-14 23:29N 29°35' W 090°36'0 0.0
2017-Nov-14 23:00N 29°35' W 090°36'0 0.0
2017-Nov-14 22:30N 29°35' W 090°36'0 0.0
2017-Nov-14 21:47N 29°35' W 090°36'0 0.0
2017-Nov-14 21:29N 29°35' W 090°36'0 0.0
2017-Nov-14 20:59N 29°35' W 090°36'0 0.0
2017-Nov-14 20:29N 29°35' W 090°36'0 0.0
2017-Nov-14 20:00N 29°35' W 090°36'0 0.0
2017-Nov-14 19:29N 29°35' W 090°36'0 0.0
2017-Nov-14 18:53N 29°35' W 090°36'0 0.0
2017-Nov-14 18:29N 29°35' W 090°36'0 0.0
2017-Nov-14 17:59N 29°35' W 090°36'0 0.0
2017-Nov-14 17:29N 29°35' W 090°36'0 0.0
2017-Nov-14 16:59N 29°35' W 090°36'0 0.0
2017-Nov-14 16:29N 29°35' W 090°36'0 0.0
2017-Nov-14 15:59N 29°35' W 090°36'0 0.0
2017-Nov-14 15:29N 29°35' W 090°36'0 0.0
2017-Nov-14 15:00N 29°35' W 090°36'0 0.0
2017-Nov-14 14:29N 29°35' W 090°36'0 0.0
2017-Nov-14 13:59N 29°35' W 090°36'0 0.0
2017-Nov-14 13:23N 29°35' W 090°36'0 0.0
2017-Nov-14 12:59N 29°35' W 090°36'0 0.0
2017-Nov-14 12:29N 29°35' W 090°36'0 0.0
2017-Nov-14 11:59N 29°35' W 090°36'0 0.0
2017-Nov-14 11:29N 29°35' W 090°36'0 0.0
2017-Nov-14 10:59N 29°35' W 090°36'0 0.0
2017-Nov-14 10:29N 29°35' W 090°36'0 0.0
2017-Nov-14 10:00N 29°35' W 090°36'0 0.0
2017-Nov-14 09:29N 29°35' W 090°36'0 0.0
2017-Nov-14 08:59N 29°35' W 090°36'0 0.0
2017-Nov-14 08:29N 29°35' W 090°36'0 0.0
2017-Nov-14 07:59N 29°35' W 090°36'0 0.0
2017-Nov-14 07:29N 29°35' W 090°36'0 0.0
2017-Nov-14 06:53N 29°35' W 090°36'0 0.0
2017-Nov-14 06:29N 29°35' W 090°36'0 0.0
2017-Nov-14 05:59N 29°35' W 090°36'0 0.0
2017-Nov-14 05:29N 29°35' W 090°36'0 0.0
2017-Nov-14 04:59N 29°35' W 090°36'0 0.0
2017-Nov-14 04:29N 29°35' W 090°36'0 0.0
2017-Nov-14 03:59N 29°35' W 090°36'0 0.0
2017-Nov-14 03:29N 29°35' W 090°36'0 0.0
2017-Nov-14 02:59N 29°35' W 090°36'0 0.0
2017-Nov-14 02:29N 29°35' W 090°36'0 0.0
2017-Nov-14 01:59N 29°35' W 090°36'0 0.0
2017-Nov-14 01:29N 29°35' W 090°36'0 0.0
2017-Nov-14 00:59N 29°35' W 090°36'0 0.0
2017-Nov-14 00:29N 29°35' W 090°36'0 0.0
2017-Nov-13 23:59N 29°35' W 090°36'0 0.0
2017-Nov-13 23:29N 29°35' W 090°36'0 0.0
2017-Nov-13 22:59N 29°35' W 090°36'0 0.0
2017-Nov-13 22:29N 29°35' W 090°36'0 0.0
2017-Nov-13 21:59N 29°35' W 090°36'0 0.0
2017-Nov-13 01:53N 29°35' W 090°36'0 0.0
2017-Nov-13 01:29N 29°35' W 090°36'0 0.0
2017-Nov-13 00:59N 29°35' W 090°36'0 0.0
2017-Nov-13 00:29N 29°35' W 090°36'0 0.0
2017-Nov-12 23:59N 29°35' W 090°36'0 0.0
2017-Nov-12 23:29N 29°35' W 090°36'0 0.0
2017-Nov-12 22:53N 29°35' W 090°36'0 0.0
2017-Nov-12 22:29N 29°35' W 090°36'0 0.0
2017-Nov-12 21:59N 29°35' W 090°36'0 0.0
2017-Nov-12 21:29N 29°35' W 090°36'0 0.0
2017-Nov-12 20:59N 29°35' W 090°36'0 0.0
2017-Nov-12 20:29N 29°35' W 090°36'0 0.0
2017-Nov-12 19:59N 29°35' W 090°36'0 0.0
2017-Nov-12 19:29N 29°35' W 090°36'0 0.0
2017-Nov-12 18:59N 29°35' W 090°36'0 0.0
2017-Nov-12 18:29N 29°35' W 090°36'0 0.0
2017-Nov-12 17:59N 29°35' W 090°36'0 0.0
2017-Nov-12 17:29N 29°35' W 090°36'0 0.0
2017-Nov-12 16:59N 29°35' W 090°36'0 0.0
2017-Nov-12 16:29N 29°35' W 090°36'0 0.0
2017-Nov-12 15:59N 29°35' W 090°36'0 0.0
2017-Nov-12 15:29N 29°35' W 090°36'0 0.0
2017-Nov-12 14:59N 29°35' W 090°36'0 0.0
2017-Nov-12 14:23N 29°35' W 090°36'0 0.0
2017-Nov-12 13:59N 29°35' W 090°36'0 0.0
2017-Nov-12 13:29N 29°35' W 090°36'0 0.0
2017-Nov-12 12:59N 29°35' W 090°36'0 0.0
2017-Nov-12 12:29N 29°35' W 090°36'0 0.0
2017-Nov-12 11:59N 29°35' W 090°36'0 0.0
2017-Nov-12 11:29N 29°35' W 090°36'0 0.0
2017-Nov-12 10:53N 29°35' W 090°36'0 0.0
2017-Nov-12 10:29N 29°35' W 090°36'0 0.0
2017-Nov-12 09:59N 29°35' W 090°36'0 0.0
2017-Nov-12 09:29N 29°35' W 090°36'0 0.0
2017-Nov-12 08:53N 29°35' W 090°36'0 0.0
2017-Nov-12 08:29N 29°35' W 090°36'0 0.0
2017-Nov-12 07:59N 29°35' W 090°36'0 0.0
2017-Nov-12 07:29N 29°35' W 090°36'0 0.0
2017-Nov-12 06:59N 29°35' W 090°36'0 0.0
2017-Nov-12 06:29N 29°35' W 090°36'0 0.0
2017-Nov-12 05:59N 29°35' W 090°36'0 0.0
2017-Nov-12 05:29N 29°35' W 090°36'0 0.0
2017-Nov-12 04:59N 29°35' W 090°36'0 0.0
2017-Nov-12 04:29N 29°35' W 090°36'0 0.0
2017-Nov-12 03:59N 29°35' W 090°36'0 0.0
2017-Nov-12 03:29N 29°35' W 090°36'0 0.0
2017-Nov-12 02:59N 29°35' W 090°36'0 0.0
2017-Nov-12 02:29N 29°35' W 090°36'0 0.0
2017-Nov-12 01:59N 29°35' W 090°36'0 0.0
2017-Nov-12 01:29N 29°35' W 090°36'0 0.0
2017-Nov-12 00:53N 29°35' W 090°36'0 0.0
2017-Nov-12 00:29N 29°35' W 090°36'0 0.0
2017-Nov-11 23:59N 29°35' W 090°36'0 0.0
2017-Nov-11 23:29N 29°35' W 090°36'0 0.0
2017-Nov-11 22:59N 29°35' W 090°36'0 0.0
2017-Nov-11 22:29N 29°35' W 090°36'0 0.0
2017-Nov-11 21:59N 29°35' W 090°36'0 0.0
2017-Nov-11 21:29N 29°35' W 090°36'0 0.0
2017-Nov-11 20:59N 29°35' W 090°36'0 0.0
2017-Nov-11 20:29N 29°35' W 090°36'0 0.0
2017-Nov-11 19:59N 29°35' W 090°36'0 0.0
2017-Nov-11 19:17N 29°35' W 090°36'0 0.0
2017-Nov-11 17:53N 29°35' W 090°36'0 0.0
2017-Nov-11 17:23N 29°35' W 090°36'0 0.0
2017-Nov-11 16:53N 29°35' W 090°36'0 0.0
2017-Nov-11 16:23N 29°35' W 090°36'0 0.0
2017-Nov-11 15:59N 29°35' W 090°36'0 0.0
2017-Nov-11 15:29N 29°35' W 090°36'0 0.0
2017-Nov-11 14:59N 29°35' W 090°36'0 0.0
2017-Nov-11 14:29N 29°35' W 090°36'0 0.0
2017-Nov-11 13:59N 29°35' W 090°36'0 0.0
2017-Nov-11 13:29N 29°35' W 090°36'0 0.0
2017-Nov-11 12:59N 29°35' W 090°36'0 0.0
2017-Nov-11 12:29N 29°35' W 090°36'0 0.0
2017-Nov-11 11:59N 29°35' W 090°36'0 0.0
2017-Nov-11 11:29N 29°35' W 090°36'0 0.0
2017-Nov-11 10:53N 29°35' W 090°36'0 0.0
2017-Nov-11 10:29N 29°35' W 090°36'0 0.0
2017-Nov-11 09:59N 29°35' W 090°36'0 0.0
2017-Nov-11 09:29N 29°35' W 090°36'0 0.0
2017-Nov-11 08:59N 29°35' W 090°36'0 0.0
2017-Nov-11 08:29N 29°35' W 090°36'0 0.0
2017-Nov-11 07:53N 29°35' W 090°36'0 0.0
2017-Nov-11 07:29N 29°35' W 090°36'0 0.0
2017-Nov-11 06:59N 29°35' W 090°36'0 0.0
2017-Nov-11 06:29N 29°35' W 090°36'0 0.0
2017-Nov-11 05:59N 29°35' W 090°36'0 0.0
2017-Nov-11 05:29N 29°35' W 090°36'0 0.0
2017-Nov-11 04:59N 29°35' W 090°36'0 0.0
2017-Nov-11 04:29N 29°35' W 090°36'0 0.0
2017-Nov-11 03:59N 29°35' W 090°36'0 0.0
2017-Nov-11 03:29N 29°35' W 090°36'0 0.0
2017-Nov-11 02:59N 29°35' W 090°36'0 0.0
2017-Nov-11 02:29N 29°35' W 090°36'0 0.0
2017-Nov-11 01:59N 29°35' W 090°36'0 0.0
2017-Nov-11 01:29N 29°35' W 090°36'0 0.0
2017-Nov-11 00:59N 29°35' W 090°36'0 0.0
2017-Nov-11 00:29N 29°35' W 090°36'0 0.0
2017-Nov-10 23:53N 29°35' W 090°36'0 0.0
2017-Nov-10 23:29N 29°35' W 090°36'0 0.0
2017-Nov-10 22:59N 29°35' W 090°36'0 0.0
2017-Nov-10 22:29N 29°35' W 090°36'0 0.0
2017-Nov-10 21:59N 29°35' W 090°36'0 0.0
2017-Nov-10 21:29N 29°35' W 090°36'0 0.0
2017-Nov-10 20:59N 29°35' W 090°36'0 0.0
2017-Nov-10 20:23N 29°35' W 090°36'0 0.0
2017-Nov-10 19:59N 29°35' W 090°36'0 0.0
2017-Nov-10 19:29N 29°35' W 090°36'0 0.0
2017-Nov-10 18:59N 29°35' W 090°36'0 0.0
2017-Nov-10 18:29N 29°35' W 090°36'0 0.0
2017-Nov-10 17:59N 29°35' W 090°36'0 0.0
2017-Nov-10 17:23N 29°35' W 090°36'0 0.0
2017-Nov-10 16:08N 29°35' W 090°36'0 0.0
2017-Nov-10 15:59N 29°35' W 090°36'0 0.0
2017-Nov-10 15:29N 29°35' W 090°36'0 0.0
2017-Nov-10 14:59N 29°35' W 090°36'0 0.0
2017-Nov-10 14:29N 29°35' W 090°36'0 0.0
2017-Nov-10 13:59N 29°35' W 090°36'0 0.0
2017-Nov-10 13:17N 29°35' W 090°36'0 0.0
2017-Nov-10 12:59N 29°35' W 090°36'0 0.0
2017-Nov-10 12:29N 29°35' W 090°36'0 0.0
2017-Nov-10 10:23N 29°35' W 090°36'0 0.0
2017-Nov-10 09:59N 29°35' W 090°36'0 0.0
2017-Nov-10 09:29N 29°35' W 090°36'0 0.0
2017-Nov-10 08:59N 29°35' W 090°36'0 0.0
2017-Nov-10 08:29N 29°35' W 090°36'0 0.0
2017-Nov-10 07:59N 29°35' W 090°36'0 0.0
2017-Nov-10 07:29N 29°35' W 090°36'0 0.0
2017-Nov-10 06:59N 29°35' W 090°36'0 0.0
2017-Nov-10 06:29N 29°35' W 090°36'0 0.0
2017-Nov-10 05:59N 29°35' W 090°36'0 0.0
2017-Nov-10 05:29N 29°35' W 090°36'0 0.0
2017-Nov-10 04:59N 29°35' W 090°36'0 0.0
2017-Nov-10 04:29N 29°35' W 090°36'0 0.0
2017-Nov-10 03:59N 29°35' W 090°36'0 0.0
2017-Nov-10 03:29N 29°35' W 090°36'0 0.0
2017-Nov-10 02:59N 29°35' W 090°36'0 0.0
2017-Nov-10 02:29N 29°35' W 090°36'0 0.0
2017-Nov-10 01:59N 29°35' W 090°36'0 0.0
2017-Nov-10 01:29N 29°35' W 090°36'0 0.0
2017-Nov-10 00:59N 29°35' W 090°36'0 0.0
2017-Nov-10 00:29N 29°35' W 090°36'0 0.0
2017-Nov-09 23:59N 29°35' W 090°36'0 0.0
2017-Nov-09 23:29N 29°35' W 090°36'0 0.0
2017-Nov-09 22:59N 29°35' W 090°36'0 0.0
2017-Nov-09 22:29N 29°35' W 090°36'0 0.0
2017-Nov-09 21:59N 29°35' W 090°36'  

Dump ship's entire track history